BIENTÔT MET'MAP
version 2.0 !

Prévue avant fin octobre,
la nouvelle version sera
plus belle, plus complète
et hébergée sur un serveur
3 fois plus puissant...
et toujours gratuite !


Pas compatible ?
Essayez la version Mobile !

SE CONNECTER : | S'inscrire | Disclaimer | Découvrir Orbifly |
Code OACI :

TAF - LTBL Cigli AB - 27 May 2020 05:15 UTC - Data Source NOAA   


- Altitude de l'aérodrome : 16 ft
- Code IATA : IGL
- Pas de NOTAMs connus.


LTBL - Cigli AB

Dernier METAR connu : 2015/08/10 13:18 LTBL 101318Z 28010KT 240V310 9999 FEW025CB SCT035 BKN100 32/20 Q1009 NOSIG RMK RWY17 32011KT
TAF TAF LTBL
Valide du 27 à 03h jusqu'au 27 à 12h UTC


270140Z 2703/2712 33009KT 9999 SCT040 BKN100
TEMPO 2703/2706 -SHRA

Source NOAA


MET'MAP, la Météo Aéronautique d'un coup d'oeil ! - Copyright ORBIFLY Décembre 2007

Développement & Programmation : Alexandra Zaïnal
Co-Développement : Marc-Olivier Méhu
Soutien technique & logistique : Manuel Goepfert
Conception & Financement : Baudouin d'Aumeries